Terminal Aerodrome Forecast
Issued by NWS Cleveland, OH

Home | Current Version | Previous Version | Graphics & Text | Print | Product List | Glossary Off
Versions: 1 2 3 4 5 6 7 8 9 10 11 12 13 14 15 16 17

000
FTUS41 KCLE 011100
TAFMFD
TAF
KMFD 011138Z 0112/0212 12003KT 1 1/2SM -SN BKN006 OVC015
     FM011700 12008KT 3SM -SN OVC015
     FM012100 09012KT 2SM -SN BKN009 OVC015
      TEMPO 0200/0204 -FZRASNPL
     FM020700 35012KT 2SM -SN OVC005
     FM020900 35010G20KT 1SM -SN OVC005=

USA.gov is the U.S. government's official web portal to all federal, state and local government web resources and services.